sensor_id;sensor_type;location;lat;lon;timestamp;P1;durP1;ratioP1;P2;durP2;ratioP2
70588;SDS011;58152;49.202;18.744;2023-02-10T00:01:48;55.00;;;27.90;;
70588;SDS011;58152;49.202;18.744;2023-02-10T00:04:13;61.63;;;29.60;;
70588;SDS011;58152;49.202;18.744;2023-02-10T00:06:39;59.37;;;29.10;;
70588;SDS011;58152;49.202;18.744;2023-02-10T00:09:06;63.33;;;32.17;;
70588;SDS011;58152;49.202;18.744;2023-02-10T00:11:32;58.30;;;29.90;;
70588;SDS011;58152;49.202;18.744;2023-02-10T00:14:17;53.87;;;27.43;;
70588;SDS011;58152;49.202;18.744;2023-02-10T00:16:44;53.83;;;25.93;;
70588;SDS011;58152;49.202;18.744;2023-02-10T00:19:09;51.73;;;25.77;;
70588;SDS011;58152;49.202;18.744;2023-02-10T00:21:35;62.67;;;26.10;;
70588;SDS011;58152;49.202;18.744;2023-02-10T00:24:01;57.97;;;30.87;;
70588;SDS011;58152;49.202;18.744;2023-02-10T00:26:26;56.90;;;28.83;;
70588;SDS011;58152;49.202;18.744;2023-02-10T00:28:52;52.17;;;27.33;;
70588;SDS011;58152;49.202;18.744;2023-02-10T00:31:17;55.53;;;27.77;;
70588;SDS011;58152;49.202;18.744;2023-02-10T00:33:44;55.10;;;28.53;;
70588;SDS011;58152;49.202;18.744;2023-02-10T00:36:11;61.23;;;30.77;;
70588;SDS011;58152;49.202;18.744;2023-02-10T00:38:38;55.90;;;29.00;;
70588;SDS011;58152;49.202;18.744;2023-02-10T00:41:05;44.40;;;24.50;;
70588;SDS011;58152;49.202;18.744;2023-02-10T00:43:32;54.27;;;26.10;;
70588;SDS011;58152;49.202;18.744;2023-02-10T00:45:57;56.50;;;29.27;;
70588;SDS011;58152;49.202;18.744;2023-02-10T00:48:23;54.00;;;26.77;;
70588;SDS011;58152;49.202;18.744;2023-02-10T00:50:48;56.97;;;27.77;;
70588;SDS011;58152;49.202;18.744;2023-02-10T00:53:14;52.27;;;25.63;;
70588;SDS011;58152;49.202;18.744;2023-02-10T00:55:39;49.77;;;25.13;;
70588;SDS011;58152;49.202;18.744;2023-02-10T00:58:04;54.67;;;28.47;;
70588;SDS011;58152;49.202;18.744;2023-02-10T01:00:30;50.37;;;26.43;;
70588;SDS011;58152;49.202;18.744;2023-02-10T01:02:55;46.10;;;23.93;;
70588;SDS011;58152;49.202;18.744;2023-02-10T01:05:20;47.00;;;24.93;;
70588;SDS011;58152;49.202;18.744;2023-02-10T01:07:46;48.43;;;22.80;;
70588;SDS011;58152;49.202;18.744;2023-02-10T01:10:11;46.03;;;24.87;;
70588;SDS011;58152;49.202;18.744;2023-02-10T01:12:37;46.30;;;24.47;;
70588;SDS011;58152;49.202;18.744;2023-02-10T01:15:03;50.53;;;24.37;;
70588;SDS011;58152;49.202;18.744;2023-02-10T01:17:28;44.50;;;22.57;;
70588;SDS011;58152;49.202;18.744;2023-02-10T01:19:54;45.70;;;24.43;;
70588;SDS011;58152;49.202;18.744;2023-02-10T01:22:19;43.43;;;23.33;;
70588;SDS011;58152;49.202;18.744;2023-02-10T01:24:44;49.73;;;25.33;;
70588;SDS011;58152;49.202;18.744;2023-02-10T01:27:10;43.03;;;23.10;;
70588;SDS011;58152;49.202;18.744;2023-02-10T01:29:35;50.63;;;24.20;;
70588;SDS011;58152;49.202;18.744;2023-02-10T01:32:01;51.90;;;26.20;;
70588;SDS011;58152;49.202;18.744;2023-02-10T01:34:26;58.20;;;29.37;;
70588;SDS011;58152;49.202;18.744;2023-02-10T01:36:51;56.30;;;28.73;;
70588;SDS011;58152;49.202;18.744;2023-02-10T01:39:17;56.70;;;26.80;;
70588;SDS011;58152;49.202;18.744;2023-02-10T01:41:42;56.20;;;29.20;;
70588;SDS011;58152;49.202;18.744;2023-02-10T01:46:45;53.73;;;26.37;;
70588;SDS011;58152;49.202;18.744;2023-02-10T01:49:13;46.20;;;23.77;;
70588;SDS011;58152;49.202;18.744;2023-02-10T01:51:46;59.00;;;28.07;;
70588;SDS011;58152;49.202;18.744;2023-02-10T01:54:19;55.15;;;27.25;;
70588;SDS011;58152;49.202;18.744;2023-02-10T01:56:48;61.07;;;28.70;;
70588;SDS011;58152;49.202;18.744;2023-02-10T01:59:14;55.50;;;27.23;;
70588;SDS011;58152;49.202;18.744;2023-02-10T02:01:41;55.70;;;28.77;;
70588;SDS011;58152;49.202;18.744;2023-02-10T02:04:06;53.60;;;27.03;;
70588;SDS011;58152;49.202;18.744;2023-02-10T02:06:32;50.40;;;27.13;;
70588;SDS011;58152;49.202;18.744;2023-02-10T02:08:59;57.33;;;25.97;;
70588;SDS011;58152;49.202;18.744;2023-02-10T02:14:02;59.10;;;26.50;;
70588;SDS011;58152;49.202;18.744;2023-02-10T02:16:57;47.77;;;24.00;;
70588;SDS011;58152;49.202;18.744;2023-02-10T02:33:46;54.80;;;26.27;;
70588;SDS011;58152;49.202;18.744;2023-02-10T02:36:22;51.00;;;26.07;;
70588;SDS011;58152;49.202;18.744;2023-02-10T02:39:03;44.73;;;22.77;;
70588;SDS011;58152;49.202;18.744;2023-02-10T02:41:30;57.70;;;27.13;;
70588;SDS011;58152;49.202;18.744;2023-02-10T02:43:57;52.47;;;26.90;;
70588;SDS011;58152;49.202;18.744;2023-02-10T02:52:21;56.03;;;24.92;;
70588;SDS011;58152;49.202;18.744;2023-02-10T02:54:59;54.47;;;25.67;;
70588;SDS011;58152;49.202;18.744;2023-02-10T02:57:48;54.10;;;28.15;;
70588;SDS011;58152;49.202;18.744;2023-02-10T03:00:20;49.83;;;25.83;;
70588;SDS011;58152;49.202;18.744;2023-02-10T03:02:53;61.37;;;27.53;;
70588;SDS011;58152;49.202;18.744;2023-02-10T03:05:19;56.20;;;26.37;;
70588;SDS011;58152;49.202;18.744;2023-02-10T03:07:47;54.40;;;26.97;;
70588;SDS011;58152;49.202;18.744;2023-02-10T03:10:12;51.07;;;25.73;;
70588;SDS011;58152;49.202;18.744;2023-02-10T03:12:38;54.27;;;26.20;;
70588;SDS011;58152;49.202;18.744;2023-02-10T03:15:04;54.30;;;26.37;;
70588;SDS011;58152;49.202;18.744;2023-02-10T03:17:29;54.70;;;26.63;;
70588;SDS011;58152;49.202;18.744;2023-02-10T03:19:55;49.43;;;24.40;;
70588;SDS011;58152;49.202;18.744;2023-02-10T03:22:20;56.07;;;25.60;;
70588;SDS011;58152;49.202;18.744;2023-02-10T03:24:45;50.60;;;25.00;;
70588;SDS011;58152;49.202;18.744;2023-02-10T03:27:11;53.37;;;26.30;;
70588;SDS011;58152;49.202;18.744;2023-02-10T03:29:36;50.13;;;24.90;;
70588;SDS011;58152;49.202;18.744;2023-02-10T03:32:02;53.53;;;24.90;;
70588;SDS011;58152;49.202;18.744;2023-02-10T03:34:28;48.53;;;24.77;;
70588;SDS011;58152;49.202;18.744;2023-02-10T03:36:54;54.73;;;26.07;;
70588;SDS011;58152;49.202;18.744;2023-02-10T03:39:19;52.73;;;25.27;;
70588;SDS011;58152;49.202;18.744;2023-02-10T03:41:45;47.23;;;24.47;;
70588;SDS011;58152;49.202;18.744;2023-02-10T03:44:10;52.40;;;25.57;;
70588;SDS011;58152;49.202;18.744;2023-02-10T03:46:35;44.33;;;23.07;;
70588;SDS011;58152;49.202;18.744;2023-02-10T03:49:02;55.20;;;25.00;;
70588;SDS011;58152;49.202;18.744;2023-02-10T03:51:28;60.07;;;26.00;;
70588;SDS011;58152;49.202;18.744;2023-02-10T03:53:54;54.07;;;26.37;;
70588;SDS011;58152;49.202;18.744;2023-02-10T03:56:19;51.53;;;26.27;;
70588;SDS011;58152;49.202;18.744;2023-02-10T03:58:45;50.07;;;27.27;;
70588;SDS011;58152;49.202;18.744;2023-02-10T04:01:11;53.70;;;26.17;;
70588;SDS011;58152;49.202;18.744;2023-02-10T04:03:38;50.20;;;23.00;;
70588;SDS011;58152;49.202;18.744;2023-02-10T04:06:04;54.70;;;25.10;;
70588;SDS011;58152;49.202;18.744;2023-02-10T04:08:29;55.93;;;26.13;;
70588;SDS011;58152;49.202;18.744;2023-02-10T04:10:55;51.80;;;26.13;;
70588;SDS011;58152;49.202;18.744;2023-02-10T04:13:20;50.30;;;26.43;;
70588;SDS011;58152;49.202;18.744;2023-02-10T04:15:46;51.03;;;25.03;;
70588;SDS011;58152;49.202;18.744;2023-02-10T04:18:12;48.37;;;23.53;;
70588;SDS011;58152;49.202;18.744;2023-02-10T04:20:38;48.33;;;24.23;;
70588;SDS011;58152;49.202;18.744;2023-02-10T04:23:03;46.10;;;23.80;;
70588;SDS011;58152;49.202;18.744;2023-02-10T04:25:28;52.07;;;25.97;;
70588;SDS011;58152;49.202;18.744;2023-02-10T04:27:54;43.43;;;23.33;;
70588;SDS011;58152;49.202;18.744;2023-02-10T04:30:19;49.30;;;25.17;;
70588;SDS011;58152;49.202;18.744;2023-02-10T04:32:45;54.87;;;26.67;;
70588;SDS011;58152;49.202;18.744;2023-02-10T04:35:10;58.20;;;27.73;;
70588;SDS011;58152;49.202;18.744;2023-02-10T04:37:35;55.07;;;24.93;;
70588;SDS011;58152;49.202;18.744;2023-02-10T04:40:01;52.20;;;23.50;;
70588;SDS011;58152;49.202;18.744;2023-02-10T04:42:26;52.70;;;26.40;;
70588;SDS011;58152;49.202;18.744;2023-02-10T04:44:55;54.17;;;24.93;;
70588;SDS011;58152;49.202;18.744;2023-02-10T04:47:23;56.10;;;27.63;;
70588;SDS011;58152;49.202;18.744;2023-02-10T04:49:49;54.33;;;26.33;;
70588;SDS011;58152;49.202;18.744;2023-02-10T04:52:15;52.77;;;26.70;;
70588;SDS011;58152;49.202;18.744;2023-02-10T04:54:40;50.23;;;27.17;;
70588;SDS011;58152;49.202;18.744;2023-02-10T04:57:06;61.37;;;32.20;;
70588;SDS011;58152;49.202;18.744;2023-02-10T04:59:31;58.47;;;32.10;;
70588;SDS011;58152;49.202;18.744;2023-02-10T05:01:56;57.70;;;27.33;;
70588;SDS011;58152;49.202;18.744;2023-02-10T05:04:22;59.80;;;28.77;;
70588;SDS011;58152;49.202;18.744;2023-02-10T05:06:47;57.77;;;25.33;;
70588;SDS011;58152;49.202;18.744;2023-02-10T05:09:12;53.67;;;26.00;;
70588;SDS011;58152;49.202;18.744;2023-02-10T05:11:38;50.83;;;26.13;;
70588;SDS011;58152;49.202;18.744;2023-02-10T05:14:04;56.80;;;26.87;;
70588;SDS011;58152;49.202;18.744;2023-02-10T05:16:30;56.03;;;26.57;;
70588;SDS011;58152;49.202;18.744;2023-02-10T05:18:55;60.63;;;31.17;;
70588;SDS011;58152;49.202;18.744;2023-02-10T05:21:20;80.63;;;45.53;;
70588;SDS011;58152;49.202;18.744;2023-02-10T05:23:46;113.00;;;60.73;;
70588;SDS011;58152;49.202;18.744;2023-02-10T05:26:11;143.63;;;77.93;;
70588;SDS011;58152;49.202;18.744;2023-02-10T05:28:37;130.20;;;67.07;;
70588;SDS011;58152;49.202;18.744;2023-02-10T05:31:02;124.83;;;60.40;;
70588;SDS011;58152;49.202;18.744;2023-02-10T05:33:31;93.10;;;46.97;;
70588;SDS011;58152;49.202;18.744;2023-02-10T05:35:57;71.13;;;34.67;;
70588;SDS011;58152;49.202;18.744;2023-02-10T05:38:22;74.47;;;33.73;;
70588;SDS011;58152;49.202;18.744;2023-02-10T05:40:48;66.60;;;31.73;;
70588;SDS011;58152;49.202;18.744;2023-02-10T05:43:14;65.73;;;30.37;;
70588;SDS011;58152;49.202;18.744;2023-02-10T05:45:39;58.37;;;26.40;;
70588;SDS011;58152;49.202;18.744;2023-02-10T05:48:06;53.40;;;26.40;;
70588;SDS011;58152;49.202;18.744;2023-02-10T05:50:33;62.80;;;28.67;;
70588;SDS011;58152;49.202;18.744;2023-02-10T05:52:58;56.40;;;26.73;;
70588;SDS011;58152;49.202;18.744;2023-02-10T05:55:24;64.30;;;27.87;;
70588;SDS011;58152;49.202;18.744;2023-02-10T05:57:51;60.10;;;26.43;;
70588;SDS011;58152;49.202;18.744;2023-02-10T06:00:17;56.33;;;28.17;;
70588;SDS011;58152;49.202;18.744;2023-02-10T06:02:42;56.67;;;27.53;;
70588;SDS011;58152;49.202;18.744;2023-02-10T06:05:08;53.23;;;26.37;;
70588;SDS011;58152;49.202;18.744;2023-02-10T06:07:33;55.27;;;25.47;;
70588;SDS011;58152;49.202;18.744;2023-02-10T06:09:59;54.70;;;24.37;;
70588;SDS011;58152;49.202;18.744;2023-02-10T06:12:24;54.17;;;25.97;;
70588;SDS011;58152;49.202;18.744;2023-02-10T06:14:57;51.60;;;23.60;;
70588;SDS011;58152;49.202;18.744;2023-02-10T06:17:22;49.90;;;23.83;;
70588;SDS011;58152;49.202;18.744;2023-02-10T06:19:48;50.93;;;25.67;;
70588;SDS011;58152;49.202;18.744;2023-02-10T06:22:13;53.70;;;24.50;;
70588;SDS011;58152;49.202;18.744;2023-02-10T06:24:39;48.43;;;23.30;;
70588;SDS011;58152;49.202;18.744;2023-02-10T06:27:06;53.33;;;26.43;;
70588;SDS011;58152;49.202;18.744;2023-02-10T06:29:32;57.20;;;27.03;;
70588;SDS011;58152;49.202;18.744;2023-02-10T06:31:57;52.13;;;25.13;;
70588;SDS011;58152;49.202;18.744;2023-02-10T06:34:23;49.97;;;23.67;;
70588;SDS011;58152;49.202;18.744;2023-02-10T06:36:49;49.00;;;24.60;;
70588;SDS011;58152;49.202;18.744;2023-02-10T06:39:14;52.77;;;25.80;;
70588;SDS011;58152;49.202;18.744;2023-02-10T06:41:39;51.83;;;25.43;;
70588;SDS011;58152;49.202;18.744;2023-02-10T06:44:12;56.90;;;25.67;;
70588;SDS011;58152;49.202;18.744;2023-02-10T06:47:06;49.57;;;25.53;;
70588;SDS011;58152;49.202;18.744;2023-02-10T06:49:32;52.20;;;26.60;;
70588;SDS011;58152;49.202;18.744;2023-02-10T06:51:57;50.13;;;24.30;;
70588;SDS011;58152;49.202;18.744;2023-02-10T06:54:23;54.10;;;25.53;;
70588;SDS011;58152;49.202;18.744;2023-02-10T06:56:48;51.00;;;23.57;;
70588;SDS011;58152;49.202;18.744;2023-02-10T06:59:14;53.30;;;24.20;;
70588;SDS011;58152;49.202;18.744;2023-02-10T07:01:40;47.97;;;22.73;;
70588;SDS011;58152;49.202;18.744;2023-02-10T07:04:05;49.97;;;23.77;;
70588;SDS011;58152;49.202;18.744;2023-02-10T07:06:30;54.50;;;27.33;;
70588;SDS011;58152;49.202;18.744;2023-02-10T07:08:56;55.33;;;25.40;;
70588;SDS011;58152;49.202;18.744;2023-02-10T07:11:23;50.50;;;26.10;;
70588;SDS011;58152;49.202;18.744;2023-02-10T07:13:48;55.77;;;27.83;;
70588;SDS011;58152;49.202;18.744;2023-02-10T07:16:14;50.23;;;27.37;;
70588;SDS011;58152;49.202;18.744;2023-02-10T07:18:41;56.30;;;26.50;;
70588;SDS011;58152;49.202;18.744;2023-02-10T07:21:08;56.23;;;27.80;;
70588;SDS011;58152;49.202;18.744;2023-02-10T07:23:33;54.00;;;25.27;;
70588;SDS011;58152;49.202;18.744;2023-02-10T07:25:59;48.33;;;23.83;;
70588;SDS011;58152;49.202;18.744;2023-02-10T07:28:24;51.33;;;25.67;;
70588;SDS011;58152;49.202;18.744;2023-02-10T07:30:50;55.10;;;27.27;;
70588;SDS011;58152;49.202;18.744;2023-02-10T07:33:15;51.43;;;26.03;;
70588;SDS011;58152;49.202;18.744;2023-02-10T07:35:40;48.73;;;25.77;;
70588;SDS011;58152;49.202;18.744;2023-02-10T07:38:06;58.10;;;26.97;;
70588;SDS011;58152;49.202;18.744;2023-02-10T07:40:31;53.00;;;27.30;;
70588;SDS011;58152;49.202;18.744;2023-02-10T07:42:57;49.50;;;24.63;;
70588;SDS011;58152;49.202;18.744;2023-02-10T07:45:22;53.70;;;27.77;;
70588;SDS011;58152;49.202;18.744;2023-02-10T07:47:48;48.53;;;26.83;;
70588;SDS011;58152;49.202;18.744;2023-02-10T07:50:13;49.90;;;24.50;;
70588;SDS011;58152;49.202;18.744;2023-02-10T07:52:39;57.20;;;25.23;;
70588;SDS011;58152;49.202;18.744;2023-02-10T07:55:06;59.40;;;29.07;;
70588;SDS011;58152;49.202;18.744;2023-02-10T07:57:32;53.30;;;26.53;;
70588;SDS011;58152;49.202;18.744;2023-02-10T07:59:57;58.00;;;27.20;;
70588;SDS011;58152;49.202;18.744;2023-02-10T08:02:23;51.43;;;29.63;;
70588;SDS011;58152;49.202;18.744;2023-02-10T08:04:48;52.40;;;27.00;;
70588;SDS011;58152;49.202;18.744;2023-02-10T08:07:14;56.17;;;29.47;;
70588;SDS011;58152;49.202;18.744;2023-02-10T08:09:40;60.70;;;26.80;;
70588;SDS011;58152;49.202;18.744;2023-02-10T08:12:08;53.10;;;27.30;;
70588;SDS011;58152;49.202;18.744;2023-02-10T08:14:33;63.17;;;31.17;;
70588;SDS011;58152;49.202;18.744;2023-02-10T08:16:59;55.37;;;29.70;;
70588;SDS011;58152;49.202;18.744;2023-02-10T08:19:24;58.23;;;28.37;;
70588;SDS011;58152;49.202;18.744;2023-02-10T08:21:50;58.57;;;29.80;;
70588;SDS011;58152;49.202;18.744;2023-02-10T08:24:15;61.53;;;31.30;;
70588;SDS011;58152;49.202;18.744;2023-02-10T08:26:40;62.23;;;34.30;;
70588;SDS011;58152;49.202;18.744;2023-02-10T08:29:07;64.13;;;30.10;;
70588;SDS011;58152;49.202;18.744;2023-02-10T08:31:32;53.43;;;27.47;;
70588;SDS011;58152;49.202;18.744;2023-02-10T08:33:57;63.27;;;31.47;;
70588;SDS011;58152;49.202;18.744;2023-02-10T08:36:23;63.33;;;31.00;;
70588;SDS011;58152;49.202;18.744;2023-02-10T08:38:50;50.83;;;28.20;;
70588;SDS011;58152;49.202;18.744;2023-02-10T08:41:16;62.37;;;32.63;;
70588;SDS011;58152;49.202;18.744;2023-02-10T08:43:43;64.43;;;31.33;;
70588;SDS011;58152;49.202;18.744;2023-02-10T08:46:08;53.23;;;28.30;;
70588;SDS011;58152;49.202;18.744;2023-02-10T08:48:34;53.33;;;27.27;;
70588;SDS011;58152;49.202;18.744;2023-02-10T08:51:00;54.13;;;27.90;;
70588;SDS011;58152;49.202;18.744;2023-02-10T08:53:31;53.77;;;26.87;;
70588;SDS011;58152;49.202;18.744;2023-02-10T08:55:57;55.43;;;26.03;;
70588;SDS011;58152;49.202;18.744;2023-02-10T08:58:27;53.40;;;29.17;;
70588;SDS011;58152;49.202;18.744;2023-02-10T09:00:53;51.87;;;27.23;;
70588;SDS011;58152;49.202;18.744;2023-02-10T09:03:18;49.63;;;26.17;;
70588;SDS011;58152;49.202;18.744;2023-02-10T09:05:44;49.47;;;25.83;;
70588;SDS011;58152;49.202;18.744;2023-02-10T09:08:11;53.40;;;26.87;;
70588;SDS011;58152;49.202;18.744;2023-02-10T09:10:38;50.27;;;25.33;;
70588;SDS011;58152;49.202;18.744;2023-02-10T09:13:04;48.43;;;24.10;;
70588;SDS011;58152;49.202;18.744;2023-02-10T09:15:30;44.30;;;24.03;;
70588;SDS011;58152;49.202;18.744;2023-02-10T09:17:55;47.67;;;25.50;;
70588;SDS011;58152;49.202;18.744;2023-02-10T09:20:20;44.93;;;23.47;;
70588;SDS011;58152;49.202;18.744;2023-02-10T09:22:46;57.17;;;27.93;;
70588;SDS011;58152;49.202;18.744;2023-02-10T09:25:13;51.80;;;26.30;;
70588;SDS011;58152;49.202;18.744;2023-02-10T09:27:38;54.23;;;27.67;;
70588;SDS011;58152;49.202;18.744;2023-02-10T09:30:04;51.87;;;26.03;;
70588;SDS011;58152;49.202;18.744;2023-02-10T09:32:30;48.00;;;25.83;;
70588;SDS011;58152;49.202;18.744;2023-02-10T09:34:55;48.73;;;23.97;;
70588;SDS011;58152;49.202;18.744;2023-02-10T09:37:21;47.67;;;25.00;;
70588;SDS011;58152;49.202;18.744;2023-02-10T09:39:46;48.53;;;23.87;;
70588;SDS011;58152;49.202;18.744;2023-02-10T09:45:22;47.67;;;24.70;;
70588;SDS011;58152;49.202;18.744;2023-02-10T09:47:52;46.90;;;25.07;;
70588;SDS011;58152;49.202;18.744;2023-02-10T09:50:40;45.30;;;24.25;;
70588;SDS011;58152;49.202;18.744;2023-02-10T09:53:19;47.87;;;25.00;;
70588;SDS011;58152;49.202;18.744;2023-02-10T09:55:52;42.47;;;23.00;;
70588;SDS011;58152;49.202;18.744;2023-02-10T09:58:32;45.13;;;24.23;;
70588;SDS011;58152;49.202;18.744;2023-02-10T10:04:01;43.63;;;23.30;;
70588;SDS011;58152;49.202;18.744;2023-02-10T10:06:34;43.83;;;25.73;;
70588;SDS011;58152;49.202;18.744;2023-02-10T10:11:39;49.07;;;27.77;;
70588;SDS011;58152;49.202;18.744;2023-02-10T10:14:19;49.00;;;25.57;;
70588;SDS011;58152;49.202;18.744;2023-02-10T10:22:20;45.67;;;25.30;;
70588;SDS011;58152;49.202;18.744;2023-02-10T10:25:05;43.97;;;25.43;;
70588;SDS011;58152;49.202;18.744;2023-02-10T10:27:45;46.77;;;27.00;;
70588;SDS011;58152;49.202;18.744;2023-02-10T10:30:24;46.53;;;24.83;;
70588;SDS011;58152;49.202;18.744;2023-02-10T10:32:53;42.90;;;24.50;;
70588;SDS011;58152;49.202;18.744;2023-02-10T10:35:26;44.93;;;24.40;;
70588;SDS011;58152;49.202;18.744;2023-02-10T10:38:00;42.10;;;25.20;;
70588;SDS011;58152;49.202;18.744;2023-02-10T10:40:53;41.57;;;23.57;;
70588;SDS011;58152;49.202;18.744;2023-02-10T10:43:24;39.23;;;23.40;;
70588;SDS011;58152;49.202;18.744;2023-02-10T10:45:54;44.67;;;24.63;;
70588;SDS011;58152;49.202;18.744;2023-02-10T10:48:25;47.83;;;27.67;;
70588;SDS011;58152;49.202;18.744;2023-02-10T10:50:55;50.37;;;27.60;;
70588;SDS011;58152;49.202;18.744;2023-02-10T10:53:35;48.23;;;25.83;;
70588;SDS011;58152;49.202;18.744;2023-02-10T10:56:05;48.80;;;27.50;;
70588;SDS011;58152;49.202;18.744;2023-02-10T10:58:37;48.53;;;27.23;;
70588;SDS011;58152;49.202;18.744;2023-02-10T11:01:05;46.80;;;25.50;;
70588;SDS011;58152;49.202;18.744;2023-02-10T11:03:31;44.70;;;26.57;;
70588;SDS011;58152;49.202;18.744;2023-02-10T11:08:55;43.10;;;23.33;;
70588;SDS011;58152;49.202;18.744;2023-02-10T11:11:34;38.67;;;22.20;;
70588;SDS011;58152;49.202;18.744;2023-02-10T11:14:03;40.73;;;23.37;;
70588;SDS011;58152;49.202;18.744;2023-02-10T11:16:57;41.97;;;26.00;;
70588;SDS011;58152;49.202;18.744;2023-02-10T11:19:28;44.77;;;27.43;;
70588;SDS011;58152;49.202;18.744;2023-02-10T11:21:56;46.23;;;26.67;;
70588;SDS011;58152;49.202;18.744;2023-02-10T11:26:56;49.07;;;28.50;;
70588;SDS011;58152;49.202;18.744;2023-02-10T11:29:22;44.23;;;25.93;;
70588;SDS011;58152;49.202;18.744;2023-02-10T11:31:49;47.47;;;27.40;;
70588;SDS011;58152;49.202;18.744;2023-02-10T11:34:27;72.47;;;43.07;;
70588;SDS011;58152;49.202;18.744;2023-02-10T11:36:56;129.40;;;84.73;;
70588;SDS011;58152;49.202;18.744;2023-02-10T11:39:28;105.53;;;60.53;;
70588;SDS011;58152;49.202;18.744;2023-02-10T11:42:07;63.60;;;37.08;;
70588;SDS011;58152;49.202;18.744;2023-02-10T11:44:41;51.08;;;29.52;;
70588;SDS011;58152;49.202;18.744;2023-02-10T11:47:13;40.20;;;24.10;;
70588;SDS011;58152;49.202;18.744;2023-02-10T11:49:45;34.45;;;20.85;;
70588;SDS011;58152;49.202;18.744;2023-02-10T11:52:12;28.52;;;17.98;;
70588;SDS011;58152;49.202;18.744;2023-02-10T11:54:38;28.50;;;16.65;;
70588;SDS011;58152;49.202;18.744;2023-02-10T11:57:22;28.15;;;16.83;;
70588;SDS011;58152;49.202;18.744;2023-02-10T12:06:16;26.02;;;18.55;;
70588;SDS011;58152;49.202;18.744;2023-02-10T12:08:57;25.30;;;16.73;;
70588;SDS011;58152;49.202;18.744;2023-02-10T12:14:36;28.73;;;17.38;;
70588;SDS011;58152;49.202;18.744;2023-02-10T12:40:10;28.70;;;18.48;;
70588;SDS011;58152;49.202;18.744;2023-02-10T12:43:19;26.63;;;16.08;;
70588;SDS011;58152;49.202;18.744;2023-02-10T12:45:54;28.10;;;18.60;;
70588;SDS011;58152;49.202;18.744;2023-02-10T12:48:41;28.20;;;16.65;;
70588;SDS011;58152;49.202;18.744;2023-02-10T12:53:57;27.58;;;16.75;;
70588;SDS011;58152;49.202;18.744;2023-02-10T12:56:30;30.25;;;18.33;;
70588;SDS011;58152;49.202;18.744;2023-02-10T12:59:13;34.50;;;20.83;;
70588;SDS011;58152;49.202;18.744;2023-02-10T13:01:51;29.75;;;19.05;;
70588;SDS011;58152;49.202;18.744;2023-02-10T13:04:30;26.17;;;16.40;;
70588;SDS011;58152;49.202;18.744;2023-02-10T13:07:16;26.00;;;16.45;;
70588;SDS011;58152;49.202;18.744;2023-02-10T13:09:59;25.83;;;16.67;;
70588;SDS011;58152;49.202;18.744;2023-02-10T13:12:27;30.40;;;17.35;;
70588;SDS011;58152;49.202;18.744;2023-02-10T13:15:23;26.65;;;16.92;;
70588;SDS011;58152;49.202;18.744;2023-02-10T13:17:49;25.80;;;16.23;;
70588;SDS011;58152;49.202;18.744;2023-02-10T13:36:32;28.42;;;18.70;;
70588;SDS011;58152;49.202;18.744;2023-02-10T13:39:02;32.05;;;19.05;;
70588;SDS011;58152;49.202;18.744;2023-02-10T13:41:34;31.23;;;17.77;;
70588;SDS011;58152;49.202;18.744;2023-02-10T13:44:14;29.02;;;17.63;;
70588;SDS011;58152;49.202;18.744;2023-02-10T13:46:49;26.30;;;16.73;;
70588;SDS011;58152;49.202;18.744;2023-02-10T13:49:19;31.80;;;17.05;;
70588;SDS011;58152;49.202;18.744;2023-02-10T13:51:46;31.10;;;18.50;;
70588;SDS011;58152;49.202;18.744;2023-02-10T13:54:31;31.23;;;19.52;;
70588;SDS011;58152;49.202;18.744;2023-02-10T13:56:58;32.72;;;18.90;;
70588;SDS011;58152;49.202;18.744;2023-02-10T13:59:28;29.38;;;19.60;;
70588;SDS011;58152;49.202;18.744;2023-02-10T14:02:14;27.92;;;16.92;;
70588;SDS011;58152;49.202;18.744;2023-02-10T14:04:46;30.65;;;19.35;;
70588;SDS011;58152;49.202;18.744;2023-02-10T14:10:03;30.63;;;19.35;;
70588;SDS011;58152;49.202;18.744;2023-02-10T14:12:55;27.98;;;18.35;;
70588;SDS011;58152;49.202;18.744;2023-02-10T14:15:24;31.17;;;18.58;;
70588;SDS011;58152;49.202;18.744;2023-02-10T14:17:55;29.13;;;18.15;;
70588;SDS011;58152;49.202;18.744;2023-02-10T14:20:25;32.00;;;19.30;;
70588;SDS011;58152;49.202;18.744;2023-02-10T14:22:55;28.50;;;17.98;;
70588;SDS011;58152;49.202;18.744;2023-02-10T14:25:38;30.55;;;17.52;;
70588;SDS011;58152;49.202;18.744;2023-02-10T14:28:06;28.23;;;17.77;;
70588;SDS011;58152;49.202;18.744;2023-02-10T14:30:44;32.05;;;18.40;;
70588;SDS011;58152;49.202;18.744;2023-02-10T14:33:19;31.13;;;19.20;;
70588;SDS011;58152;49.202;18.744;2023-02-10T14:35:49;29.02;;;19.58;;
70588;SDS011;58152;49.202;18.744;2023-02-10T14:38:19;32.65;;;20.98;;
70588;SDS011;58152;49.202;18.744;2023-02-10T14:40:47;30.23;;;20.58;;
70588;SDS011;58152;49.202;18.744;2023-02-10T14:43:14;31.35;;;19.90;;
70588;SDS011;58152;49.202;18.744;2023-02-10T14:45:44;29.02;;;19.65;;
70588;SDS011;58152;49.202;18.744;2023-02-10T14:48:12;29.95;;;20.05;;
70588;SDS011;58152;49.202;18.744;2023-02-10T14:50:39;32.00;;;20.67;;
70588;SDS011;58152;49.202;18.744;2023-02-10T14:53:05;28.10;;;18.70;;
70588;SDS011;58152;49.202;18.744;2023-02-10T14:55:36;29.42;;;20.25;;
70588;SDS011;58152;49.202;18.744;2023-02-10T14:58:08;27.50;;;19.15;;
70588;SDS011;58152;49.202;18.744;2023-02-10T15:00:35;30.52;;;20.17;;
70588;SDS011;58152;49.202;18.744;2023-02-10T15:03:02;31.10;;;20.60;;
70588;SDS011;58152;49.202;18.744;2023-02-10T15:05:38;32.15;;;20.58;;
70588;SDS011;58152;49.202;18.744;2023-02-10T15:08:12;33.47;;;22.25;;
70588;SDS011;58152;49.202;18.744;2023-02-10T15:10:46;32.20;;;19.83;;
70588;SDS011;58152;49.202;18.744;2023-02-10T15:13:14;32.65;;;20.45;;
70588;SDS011;58152;49.202;18.744;2023-02-10T15:15:48;34.80;;;21.27;;
70588;SDS011;58152;49.202;18.744;2023-02-10T15:18:20;33.67;;;21.90;;
70588;SDS011;58152;49.202;18.744;2023-02-10T15:20:53;34.53;;;21.83;;
70588;SDS011;58152;49.202;18.744;2023-02-10T15:23:23;32.45;;;19.67;;
70588;SDS011;58152;49.202;18.744;2023-02-10T15:28:45;30.10;;;19.45;;
70588;SDS011;58152;49.202;18.744;2023-02-10T15:33:40;33.95;;;21.65;;
70588;SDS011;58152;49.202;18.744;2023-02-10T15:41:32;31.30;;;19.92;;
70588;SDS011;58152;49.202;18.744;2023-02-10T15:46:43;29.02;;;18.15;;
70588;SDS011;58152;49.202;18.744;2023-02-10T15:49:11;28.67;;;17.75;;
70588;SDS011;58152;49.202;18.744;2023-02-10T15:51:43;32.97;;;18.23;;
70588;SDS011;58152;49.202;18.744;2023-02-10T15:54:15;31.90;;;20.35;;
70588;SDS011;58152;49.202;18.744;2023-02-10T15:56:42;31.92;;;19.13;;
70588;SDS011;58152;49.202;18.744;2023-02-10T15:59:18;30.80;;;19.52;;
70588;SDS011;58152;49.202;18.744;2023-02-10T16:01:43;32.40;;;20.45;;
70588;SDS011;58152;49.202;18.744;2023-02-10T16:04:09;34.10;;;20.10;;
70588;SDS011;58152;49.202;18.744;2023-02-10T16:06:37;34.70;;;20.65;;
70588;SDS011;58152;49.202;18.744;2023-02-10T16:09:03;37.78;;;21.98;;
70588;SDS011;58152;49.202;18.744;2023-02-10T16:11:29;33.55;;;20.27;;